EWG3CK EDDS-EDDH
Flight info
| Callsign | EWG3CK |
|---|---|
| Flight time | N/A |
| Altitude | 37000 |
| Route | OKIBA4B/25 OKIBA N851 RIMKI Z99 LOHRE DCT MASEK DCT ELNAT/N0428F360 P605 NOLGO NOLGO3P |
| Aircraft | A319/M-V/N |
Departure
| Time | N/A |
|---|---|
| Airport | Stuttgart Airport (EDDS) |
Arrival
| Time | 2026-05-03 20:15 |
|---|---|
| Airport | Hamburg Helmut Schmidt Airport (EDDH) |
| Time | Latitude | Longitude | Altitude | Speed | Heading |
|---|---|---|---|---|---|
| 2026-05-03 20:15 | 53.63220 | 9.99754 | 47 ft | 10 kts | 127° |
| 2026-05-03 20:15 | 53.63157 | 9.99819 | 49 ft | 12 kts | 152° |
| 2026-05-03 20:15 | 53.63081 | 9.99885 | 46 ft | 13 kts | 153° |
| 2026-05-03 20:15 | 53.63014 | 9.99944 | 49 ft | 6 kts | 152° |
| 2026-05-03 20:16 | 53.63007 | 9.99950 | 49 ft | 1 kts | 152° |
| 2026-05-03 20:16 | 53.62990 | 9.99964 | 47 ft | 5 kts | 154° |
| 2026-05-03 20:16 | 53.62957 | 9.99998 | 49 ft | 6 kts | 142° |
| 2026-05-03 20:16 | 53.62946 | 10.00077 | 48 ft | 9 kts | 69° |
| 2026-05-03 20:17 | 53.62988 | 10.00175 | 49 ft | 12 kts | 37° |
| 2026-05-03 20:17 | 53.63059 | 10.00252 | 48 ft | 12 kts | 27° |
| 2026-05-03 20:17 | 53.63146 | 10.00254 | 49 ft | 10 kts | 355° |
| 2026-05-03 20:17 | 53.63221 | 10.00245 | 49 ft | 11 kts | 356° |
| 2026-05-03 20:18 | 53.63303 | 10.00235 | 49 ft | 12 kts | 355° |
| 2026-05-03 20:18 | 53.63319 | 10.00233 | 49 ft | 0 kts | 355° |
| 2026-05-03 20:18 | 53.63320 | 10.00234 | 49 ft | 1 kts | 3° |
| 2026-05-03 20:18 | 53.63328 | 10.00257 | 49 ft | 3 kts | 69° |
| 2026-05-03 20:19 | 53.63330 | 10.00302 | 49 ft | 4 kts | 86° |
| 2026-05-03 20:19 | 53.63330 | 10.00336 | 49 ft | 2 kts | 86° |
| 2026-05-03 20:19 | 53.63331 | 10.00357 | 49 ft | 2 kts | 87° |
| 2026-05-03 20:19 | 53.63331 | 10.00365 | 49 ft | 0 kts | 87° |
| 2026-05-03 20:20 | 53.63331 | 10.00366 | 49 ft | 0 kts | 87° |